sensor_id;sensor_type;location;lat;lon;timestamp;P1;durP1;ratioP1;P2;durP2;ratioP2
47155;SDS011;32908;52.344;16.858;2023-06-22T00:02:24;13.20;;;11.90;;
47155;SDS011;32908;52.344;16.858;2023-06-22T00:04:53;12.40;;;10.90;;
47155;SDS011;32908;52.344;16.858;2023-06-22T00:07:21;12.70;;;10.90;;
47155;SDS011;32908;52.344;16.858;2023-06-22T00:09:48;12.30;;;11.20;;
47155;SDS011;32908;52.344;16.858;2023-06-22T00:12:16;11.90;;;10.80;;
47155;SDS011;32908;52.344;16.858;2023-06-22T00:14:44;12.20;;;11.00;;
47155;SDS011;32908;52.344;16.858;2023-06-22T00:17:12;12.70;;;11.20;;
47155;SDS011;32908;52.344;16.858;2023-06-22T00:19:40;11.90;;;10.70;;
47155;SDS011;32908;52.344;16.858;2023-06-22T00:22:09;12.10;;;11.00;;
47155;SDS011;32908;52.344;16.858;2023-06-22T00:24:37;12.10;;;11.00;;
47155;SDS011;32908;52.344;16.858;2023-06-22T00:27:05;13.50;;;11.60;;
47155;SDS011;32908;52.344;16.858;2023-06-22T00:29:33;15.10;;;12.10;;
47155;SDS011;32908;52.344;16.858;2023-06-22T00:32:01;14.30;;;12.80;;
47155;SDS011;32908;52.344;16.858;2023-06-22T00:34:29;14.10;;;12.70;;
47155;SDS011;32908;52.344;16.858;2023-06-22T00:36:57;17.90;;;12.70;;
47155;SDS011;32908;52.344;16.858;2023-06-22T00:39:26;14.00;;;12.50;;
47155;SDS011;32908;52.344;16.858;2023-06-22T00:41:53;14.10;;;12.70;;
47155;SDS011;32908;52.344;16.858;2023-06-22T00:44:22;14.60;;;13.10;;
47155;SDS011;32908;52.344;16.858;2023-06-22T00:46:50;16.50;;;13.00;;
47155;SDS011;32908;52.344;16.858;2023-06-22T00:49:18;14.40;;;12.70;;
47155;SDS011;32908;52.344;16.858;2023-06-22T00:51:46;15.00;;;12.30;;
47155;SDS011;32908;52.344;16.858;2023-06-22T00:54:14;17.10;;;12.80;;
47155;SDS011;32908;52.344;16.858;2023-06-22T00:56:42;13.60;;;12.00;;
47155;SDS011;32908;52.344;16.858;2023-06-22T00:59:10;15.00;;;12.50;;
47155;SDS011;32908;52.344;16.858;2023-06-22T01:01:38;13.00;;;11.70;;
47155;SDS011;32908;52.344;16.858;2023-06-22T01:04:07;13.90;;;12.30;;
47155;SDS011;32908;52.344;16.858;2023-06-22T01:06:38;15.50;;;12.50;;
47155;SDS011;32908;52.344;16.858;2023-06-22T01:09:20;13.60;;;12.20;;
47155;SDS011;32908;52.344;16.858;2023-06-22T01:11:52;14.00;;;12.60;;
47155;SDS011;32908;52.344;16.858;2023-06-22T01:14:26;15.30;;;13.20;;
47155;SDS011;32908;52.344;16.858;2023-06-22T01:16:57;15.20;;;13.60;;
47155;SDS011;32908;52.344;16.858;2023-06-22T01:19:35;14.80;;;13.30;;
47155;SDS011;32908;52.344;16.858;2023-06-22T01:22:05;16.10;;;14.10;;
47155;SDS011;32908;52.344;16.858;2023-06-22T01:24:41;15.80;;;14.20;;
47155;SDS011;32908;52.344;16.858;2023-06-22T01:27:17;16.10;;;14.40;;
47155;SDS011;32908;52.344;16.858;2023-06-22T01:29:52;15.70;;;14.20;;
47155;SDS011;32908;52.344;16.858;2023-06-22T01:32:27;17.50;;;15.60;;
47155;SDS011;32908;52.344;16.858;2023-06-22T01:34:55;16.30;;;14.60;;
47155;SDS011;32908;52.344;16.858;2023-06-22T01:37:24;17.30;;;15.40;;
47155;SDS011;32908;52.344;16.858;2023-06-22T01:39:52;17.00;;;15.30;;
47155;SDS011;32908;52.344;16.858;2023-06-22T01:42:20;17.20;;;14.70;;
47155;SDS011;32908;52.344;16.858;2023-06-22T01:44:48;17.30;;;15.60;;
47155;SDS011;32908;52.344;16.858;2023-06-22T01:47:16;17.40;;;15.70;;
47155;SDS011;32908;52.344;16.858;2023-06-22T01:49:44;17.80;;;16.00;;
47155;SDS011;32908;52.344;16.858;2023-06-22T01:52:13;17.50;;;15.50;;
47155;SDS011;32908;52.344;16.858;2023-06-22T01:54:41;17.20;;;15.40;;
47155;SDS011;32908;52.344;16.858;2023-06-22T01:57:09;18.10;;;14.50;;
47155;SDS011;32908;52.344;16.858;2023-06-22T01:59:39;15.90;;;14.30;;
47155;SDS011;32908;52.344;16.858;2023-06-22T02:04:42;16.00;;;14.30;;
47155;SDS011;32908;52.344;16.858;2023-06-22T02:07:13;17.00;;;15.00;;
47155;SDS011;32908;52.344;16.858;2023-06-22T02:09:43;15.60;;;13.60;;
47155;SDS011;32908;52.344;16.858;2023-06-22T02:12:12;15.60;;;14.10;;
47155;SDS011;32908;52.344;16.858;2023-06-22T02:14:47;16.80;;;14.80;;
47155;SDS011;32908;52.344;16.858;2023-06-22T02:17:17;16.40;;;14.70;;
47155;SDS011;32908;52.344;16.858;2023-06-22T02:19:45;16.10;;;14.40;;
47155;SDS011;32908;52.344;16.858;2023-06-22T02:22:13;16.80;;;15.00;;
47155;SDS011;32908;52.344;16.858;2023-06-22T02:24:41;17.60;;;15.10;;
47155;SDS011;32908;52.344;16.858;2023-06-22T02:27:09;17.10;;;15.40;;
47155;SDS011;32908;52.344;16.858;2023-06-22T02:29:37;19.20;;;15.40;;
47155;SDS011;32908;52.344;16.858;2023-06-22T02:32:05;16.80;;;15.00;;
47155;SDS011;32908;52.344;16.858;2023-06-22T02:34:34;19.10;;;15.70;;
47155;SDS011;32908;52.344;16.858;2023-06-22T02:37:03;17.20;;;15.20;;
47155;SDS011;32908;52.344;16.858;2023-06-22T02:39:31;18.00;;;14.90;;
47155;SDS011;32908;52.344;16.858;2023-06-22T02:41:59;17.70;;;15.80;;
47155;SDS011;32908;52.344;16.858;2023-06-22T02:44:28;17.60;;;14.80;;
47155;SDS011;32908;52.344;16.858;2023-06-22T02:46:55;18.10;;;15.30;;
47155;SDS011;32908;52.344;16.858;2023-06-22T02:49:24;17.10;;;15.30;;
47155;SDS011;32908;52.344;16.858;2023-06-22T02:51:52;16.90;;;15.10;;
47155;SDS011;32908;52.344;16.858;2023-06-22T02:54:20;17.50;;;15.60;;
47155;SDS011;32908;52.344;16.858;2023-06-22T02:56:48;16.50;;;14.30;;
47155;SDS011;32908;52.344;16.858;2023-06-22T02:59:17;18.20;;;15.30;;
47155;SDS011;32908;52.344;16.858;2023-06-22T03:01:49;16.10;;;14.20;;
47155;SDS011;32908;52.344;16.858;2023-06-22T03:04:17;17.40;;;15.50;;
47155;SDS011;32908;52.344;16.858;2023-06-22T03:06:45;17.70;;;15.80;;
47155;SDS011;32908;52.344;16.858;2023-06-22T03:09:17;17.30;;;15.40;;
47155;SDS011;32908;52.344;16.858;2023-06-22T03:11:45;18.20;;;15.20;;
47155;SDS011;32908;52.344;16.858;2023-06-22T03:14:13;16.40;;;14.30;;
47155;SDS011;32908;52.344;16.858;2023-06-22T03:16:41;15.50;;;14.00;;
47155;SDS011;32908;52.344;16.858;2023-06-22T03:19:09;16.30;;;14.70;;
47155;SDS011;32908;52.344;16.858;2023-06-22T03:21:37;16.60;;;14.80;;
47155;SDS011;32908;52.344;16.858;2023-06-22T03:24:05;18.10;;;15.10;;
47155;SDS011;32908;52.344;16.858;2023-06-22T03:26:33;17.00;;;15.40;;
47155;SDS011;32908;52.344;16.858;2023-06-22T03:29:01;17.10;;;15.40;;
47155;SDS011;32908;52.344;16.858;2023-06-22T03:31:29;19.00;;;13.70;;
47155;SDS011;32908;52.344;16.858;2023-06-22T03:33:57;17.60;;;15.70;;
47155;SDS011;32908;52.344;16.858;2023-06-22T03:36:25;18.00;;;15.70;;
47155;SDS011;32908;52.344;16.858;2023-06-22T03:38:53;16.80;;;15.00;;
47155;SDS011;32908;52.344;16.858;2023-06-22T03:41:22;17.40;;;14.60;;
47155;SDS011;32908;52.344;16.858;2023-06-22T03:43:50;16.20;;;14.40;;
47155;SDS011;32908;52.344;16.858;2023-06-22T03:46:18;17.10;;;15.30;;
47155;SDS011;32908;52.344;16.858;2023-06-22T03:48:46;16.80;;;15.10;;
47155;SDS011;32908;52.344;16.858;2023-06-22T03:51:14;17.70;;;15.10;;
47155;SDS011;32908;52.344;16.858;2023-06-22T03:53:42;16.70;;;14.50;;
47155;SDS011;32908;52.344;16.858;2023-06-22T03:56:10;16.10;;;14.50;;
47155;SDS011;32908;52.344;16.858;2023-06-22T03:58:38;16.60;;;14.80;;
47155;SDS011;32908;52.344;16.858;2023-06-22T04:01:09;14.70;;;13.20;;
47155;SDS011;32908;52.344;16.858;2023-06-22T04:03:37;15.60;;;14.00;;
47155;SDS011;32908;52.344;16.858;2023-06-22T04:06:06;15.80;;;13.70;;
47155;SDS011;32908;52.344;16.858;2023-06-22T04:08:33;17.00;;;13.10;;
47155;SDS011;32908;52.344;16.858;2023-06-22T04:11:02;14.70;;;12.70;;
47155;SDS011;32908;52.344;16.858;2023-06-22T04:13:30;13.30;;;11.90;;
47155;SDS011;32908;52.344;16.858;2023-06-22T04:15:58;13.10;;;10.20;;
47155;SDS011;32908;52.344;16.858;2023-06-22T04:18:27;10.40;;;9.30;;
47155;SDS011;32908;52.344;16.858;2023-06-22T04:20:55;10.30;;;9.30;;
47155;SDS011;32908;52.344;16.858;2023-06-22T04:23:23;10.70;;;7.60;;
47155;SDS011;32908;52.344;16.858;2023-06-22T04:25:51;8.70;;;7.80;;
47155;SDS011;32908;52.344;16.858;2023-06-22T04:28:18;12.00;;;7.90;;
47155;SDS011;32908;52.344;16.858;2023-06-22T04:30:46;9.10;;;7.10;;
47155;SDS011;32908;52.344;16.858;2023-06-22T04:33:15;7.80;;;7.00;;
47155;SDS011;32908;52.344;16.858;2023-06-22T04:35:45;7.90;;;6.20;;
47155;SDS011;32908;52.344;16.858;2023-06-22T04:38:13;10.10;;;6.10;;
47155;SDS011;32908;52.344;16.858;2023-06-22T04:40:41;6.60;;;6.00;;
47155;SDS011;32908;52.344;16.858;2023-06-22T04:43:09;9.90;;;6.50;;
47155;SDS011;32908;52.344;16.858;2023-06-22T04:45:37;6.70;;;6.00;;
47155;SDS011;32908;52.344;16.858;2023-06-22T04:48:05;7.20;;;6.30;;
47155;SDS011;32908;52.344;16.858;2023-06-22T04:50:35;6.90;;;5.70;;
47155;SDS011;32908;52.344;16.858;2023-06-22T04:53:04;7.20;;;5.10;;
47155;SDS011;32908;52.344;16.858;2023-06-22T04:55:33;6.10;;;4.70;;
47155;SDS011;32908;52.344;16.858;2023-06-22T04:58:03;6.50;;;4.70;;
47155;SDS011;32908;52.344;16.858;2023-06-22T05:00:31;6.00;;;4.70;;
47155;SDS011;32908;52.344;16.858;2023-06-22T05:03:02;5.80;;;4.80;;
47155;SDS011;32908;52.344;16.858;2023-06-22T05:05:33;7.20;;;4.60;;
47155;SDS011;32908;52.344;16.858;2023-06-22T05:08:01;8.60;;;4.50;;
47155;SDS011;32908;52.344;16.858;2023-06-22T05:10:29;6.50;;;4.30;;
47155;SDS011;32908;52.344;16.858;2023-06-22T05:12:57;8.40;;;4.70;;
47155;SDS011;32908;52.344;16.858;2023-06-22T05:15:25;5.60;;;4.50;;
47155;SDS011;32908;52.344;16.858;2023-06-22T05:17:56;6.50;;;4.20;;
47155;SDS011;32908;52.344;16.858;2023-06-22T05:20:24;8.20;;;4.60;;
47155;SDS011;32908;52.344;16.858;2023-06-22T05:22:52;5.60;;;4.30;;
47155;SDS011;32908;52.344;16.858;2023-06-22T05:25:20;5.90;;;4.10;;
47155;SDS011;32908;52.344;16.858;2023-06-22T05:27:48;7.50;;;4.50;;
47155;SDS011;32908;52.344;16.858;2023-06-22T05:30:18;7.00;;;4.30;;
47155;SDS011;32908;52.344;16.858;2023-06-22T05:32:46;6.00;;;3.70;;
47155;SDS011;32908;52.344;16.858;2023-06-22T05:35:14;6.40;;;4.00;;
47155;SDS011;32908;52.344;16.858;2023-06-22T05:37:42;5.40;;;3.80;;
47155;SDS011;32908;52.344;16.858;2023-06-22T05:40:11;5.90;;;3.40;;
47155;SDS011;32908;52.344;16.858;2023-06-22T05:42:39;6.40;;;3.60;;
47155;SDS011;32908;52.344;16.858;2023-06-22T05:45:08;5.90;;;3.40;;
47155;SDS011;32908;52.344;16.858;2023-06-22T05:47:37;3.50;;;3.20;;
47155;SDS011;32908;52.344;16.858;2023-06-22T05:50:05;5.60;;;3.10;;
47155;SDS011;32908;52.344;16.858;2023-06-22T05:52:35;5.50;;;2.90;;
47155;SDS011;32908;52.344;16.858;2023-06-22T05:55:03;5.80;;;3.30;;
47155;SDS011;32908;52.344;16.858;2023-06-22T05:57:32;5.40;;;2.90;;
47155;SDS011;32908;52.344;16.858;2023-06-22T06:00:00;9.10;;;3.10;;
47155;SDS011;32908;52.344;16.858;2023-06-22T06:02:32;5.40;;;2.90;;
47155;SDS011;32908;52.344;16.858;2023-06-22T06:05:00;5.70;;;2.80;;
47155;SDS011;32908;52.344;16.858;2023-06-22T06:07:29;4.30;;;2.60;;
47155;SDS011;32908;52.344;16.858;2023-06-22T06:09:57;6.00;;;3.00;;
47155;SDS011;32908;52.344;16.858;2023-06-22T06:12:24;8.80;;;3.70;;
47155;SDS011;32908;52.344;16.858;2023-06-22T06:14:52;4.00;;;3.00;;
47155;SDS011;32908;52.344;16.858;2023-06-22T06:17:22;4.50;;;3.00;;
47155;SDS011;32908;52.344;16.858;2023-06-22T06:19:50;5.30;;;2.70;;
47155;SDS011;32908;52.344;16.858;2023-06-22T06:22:19;6.90;;;3.00;;
47155;SDS011;32908;52.344;16.858;2023-06-22T06:24:47;7.10;;;3.10;;
47155;SDS011;32908;52.344;16.858;2023-06-22T06:27:15;4.30;;;2.70;;
47155;SDS011;32908;52.344;16.858;2023-06-22T06:29:44;5.30;;;2.90;;
47155;SDS011;32908;52.344;16.858;2023-06-22T06:32:14;4.70;;;2.90;;
47155;SDS011;32908;52.344;16.858;2023-06-22T06:34:42;6.80;;;2.80;;
47155;SDS011;32908;52.344;16.858;2023-06-22T06:37:10;6.70;;;2.70;;
47155;SDS011;32908;52.344;16.858;2023-06-22T06:39:38;6.10;;;2.30;;
47155;SDS011;32908;52.344;16.858;2023-06-22T06:42:07;3.30;;;2.20;;
47155;SDS011;32908;52.344;16.858;2023-06-22T06:44:35;5.50;;;2.60;;
47155;SDS011;32908;52.344;16.858;2023-06-22T06:47:04;5.70;;;2.80;;
47155;SDS011;32908;52.344;16.858;2023-06-22T06:49:33;3.80;;;2.00;;
47155;SDS011;32908;52.344;16.858;2023-06-22T06:52:01;4.20;;;2.30;;
47155;SDS011;32908;52.344;16.858;2023-06-22T06:54:29;4.70;;;2.40;;
47155;SDS011;32908;52.344;16.858;2023-06-22T06:56:57;6.80;;;2.60;;
47155;SDS011;32908;52.344;16.858;2023-06-22T06:59:25;3.80;;;2.30;;
47155;SDS011;32908;52.344;16.858;2023-06-22T07:01:55;3.90;;;2.20;;
47155;SDS011;32908;52.344;16.858;2023-06-22T07:04:23;5.10;;;2.40;;
47155;SDS011;32908;52.344;16.858;2023-06-22T07:06:51;5.50;;;3.00;;
47155;SDS011;32908;52.344;16.858;2023-06-22T07:09:18;3.40;;;2.40;;
47155;SDS011;32908;52.344;16.858;2023-06-22T07:11:46;5.30;;;2.50;;
47155;SDS011;32908;52.344;16.858;2023-06-22T07:14:14;6.90;;;2.40;;
47155;SDS011;32908;52.344;16.858;2023-06-22T07:16:42;5.10;;;2.40;;
47155;SDS011;32908;52.344;16.858;2023-06-22T07:19:10;3.20;;;2.20;;
47155;SDS011;32908;52.344;16.858;2023-06-22T07:21:39;4.10;;;2.70;;
47155;SDS011;32908;52.344;16.858;2023-06-22T07:24:07;4.90;;;2.20;;
47155;SDS011;32908;52.344;16.858;2023-06-22T07:26:35;3.50;;;2.00;;
47155;SDS011;32908;52.344;16.858;2023-06-22T07:29:03;3.60;;;1.90;;
47155;SDS011;32908;52.344;16.858;2023-06-22T07:31:31;3.90;;;2.10;;
47155;SDS011;32908;52.344;16.858;2023-06-22T07:33:58;3.90;;;2.10;;
47155;SDS011;32908;52.344;16.858;2023-06-22T07:36:26;5.40;;;2.00;;
47155;SDS011;32908;52.344;16.858;2023-06-22T07:38:56;6.00;;;2.60;;
47155;SDS011;32908;52.344;16.858;2023-06-22T07:41:24;3.30;;;2.00;;
47155;SDS011;32908;52.344;16.858;2023-06-22T07:43:52;3.10;;;1.90;;
47155;SDS011;32908;52.344;16.858;2023-06-22T07:46:20;4.40;;;2.00;;
47155;SDS011;32908;52.344;16.858;2023-06-22T07:48:47;2.40;;;1.80;;
47155;SDS011;32908;52.344;16.858;2023-06-22T07:51:15;2.10;;;1.90;;
47155;SDS011;32908;52.344;16.858;2023-06-22T07:53:43;3.80;;;1.80;;
47155;SDS011;32908;52.344;16.858;2023-06-22T07:56:12;3.00;;;1.80;;
47155;SDS011;32908;52.344;16.858;2023-06-22T07:58:40;4.70;;;1.90;;
47155;SDS011;32908;52.344;16.858;2023-06-22T08:01:08;2.00;;;1.80;;
47155;SDS011;32908;52.344;16.858;2023-06-22T08:03:36;3.30;;;2.20;;
47155;SDS011;32908;52.344;16.858;2023-06-22T08:06:04;3.40;;;2.10;;
47155;SDS011;32908;52.344;16.858;2023-06-22T08:08:32;2.30;;;1.90;;
47155;SDS011;32908;52.344;16.858;2023-06-22T08:11:00;3.00;;;2.20;;
47155;SDS011;32908;52.344;16.858;2023-06-22T08:13:28;3.80;;;1.80;;
47155;SDS011;32908;52.344;16.858;2023-06-22T08:15:56;4.70;;;2.20;;
47155;SDS011;32908;52.344;16.858;2023-06-22T08:18:24;4.80;;;1.90;;
47155;SDS011;32908;52.344;16.858;2023-06-22T08:20:51;3.50;;;2.00;;
47155;SDS011;32908;52.344;16.858;2023-06-22T08:23:19;3.60;;;1.80;;
47155;SDS011;32908;52.344;16.858;2023-06-22T08:25:47;3.00;;;2.00;;
47155;SDS011;32908;52.344;16.858;2023-06-22T08:28:16;3.20;;;2.10;;
47155;SDS011;32908;52.344;16.858;2023-06-22T08:30:44;2.50;;;2.10;;
47155;SDS011;32908;52.344;16.858;2023-06-22T08:33:12;2.30;;;1.80;;
47155;SDS011;32908;52.344;16.858;2023-06-22T08:35:41;3.80;;;1.90;;
47155;SDS011;32908;52.344;16.858;2023-06-22T08:38:09;5.40;;;2.30;;
47155;SDS011;32908;52.344;16.858;2023-06-22T08:40:42;2.40;;;1.90;;
47155;SDS011;32908;52.344;16.858;2023-06-22T08:43:09;1.90;;;1.80;;
47155;SDS011;32908;52.344;16.858;2023-06-22T08:45:38;2.30;;;1.70;;
47155;SDS011;32908;52.344;16.858;2023-06-22T08:48:05;3.50;;;1.90;;
47155;SDS011;32908;52.344;16.858;2023-06-22T08:50:33;2.00;;;1.80;;
47155;SDS011;32908;52.344;16.858;2023-06-22T08:53:01;2.70;;;1.80;;
47155;SDS011;32908;52.344;16.858;2023-06-22T08:55:29;3.00;;;1.60;;
47155;SDS011;32908;52.344;16.858;2023-06-22T08:57:56;3.00;;;1.70;;
47155;SDS011;32908;52.344;16.858;2023-06-22T09:00:24;2.60;;;1.80;;
47155;SDS011;32908;52.344;16.858;2023-06-22T09:02:53;2.80;;;2.10;;
47155;SDS011;32908;52.344;16.858;2023-06-22T09:05:26;2.30;;;1.60;;
47155;SDS011;32908;52.344;16.858;2023-06-22T09:07:53;3.50;;;2.10;;
47155;SDS011;32908;52.344;16.858;2023-06-22T09:10:22;4.90;;;2.20;;
47155;SDS011;32908;52.344;16.858;2023-06-22T09:12:51;3.60;;;1.90;;
47155;SDS011;32908;52.344;16.858;2023-06-22T09:15:19;2.70;;;1.60;;
47155;SDS011;32908;52.344;16.858;2023-06-22T09:17:47;2.80;;;1.90;;
47155;SDS011;32908;52.344;16.858;2023-06-22T09:20:16;2.20;;;1.90;;
47155;SDS011;32908;52.344;16.858;2023-06-22T09:22:44;2.50;;;2.20;;
47155;SDS011;32908;52.344;16.858;2023-06-22T09:25:12;4.50;;;2.20;;
47155;SDS011;32908;52.344;16.858;2023-06-22T09:27:40;3.20;;;2.00;;
47155;SDS011;32908;52.344;16.858;2023-06-22T09:30:09;2.10;;;1.80;;
47155;SDS011;32908;52.344;16.858;2023-06-22T09:32:38;2.40;;;1.90;;
47155;SDS011;32908;52.344;16.858;2023-06-22T09:35:07;6.30;;;1.90;;
47155;SDS011;32908;52.344;16.858;2023-06-22T09:37:36;4.30;;;1.70;;
47155;SDS011;32908;52.344;16.858;2023-06-22T09:40:05;3.40;;;2.00;;
47155;SDS011;32908;52.344;16.858;2023-06-22T09:42:38;6.40;;;2.10;;
47155;SDS011;32908;52.344;16.858;2023-06-22T09:45:06;2.90;;;1.90;;
47155;SDS011;32908;52.344;16.858;2023-06-22T09:47:35;4.70;;;2.20;;
47155;SDS011;32908;52.344;16.858;2023-06-22T09:50:04;2.50;;;2.00;;
47155;SDS011;32908;52.344;16.858;2023-06-22T09:52:33;1.90;;;1.80;;
47155;SDS011;32908;52.344;16.858;2023-06-22T09:55:01;7.60;;;2.20;;
47155;SDS011;32908;52.344;16.858;2023-06-22T09:57:30;2.60;;;1.60;;
47155;SDS011;32908;52.344;16.858;2023-06-22T09:59:58;3.80;;;1.90;;
47155;SDS011;32908;52.344;16.858;2023-06-22T10:02:25;3.40;;;2.00;;
47155;SDS011;32908;52.344;16.858;2023-06-22T10:04:53;5.00;;;2.10;;
47155;SDS011;32908;52.344;16.858;2023-06-22T10:07:21;3.60;;;2.00;;
47155;SDS011;32908;52.344;16.858;2023-06-22T10:09:49;4.40;;;2.10;;
47155;SDS011;32908;52.344;16.858;2023-06-22T10:12:17;3.60;;;2.20;;
47155;SDS011;32908;52.344;16.858;2023-06-22T10:14:45;2.70;;;1.90;;
47155;SDS011;32908;52.344;16.858;2023-06-22T10:17:13;2.60;;;2.00;;
47155;SDS011;32908;52.344;16.858;2023-06-22T10:19:41;4.80;;;2.40;;
47155;SDS011;32908;52.344;16.858;2023-06-22T10:22:09;2.40;;;2.20;;
47155;SDS011;32908;52.344;16.858;2023-06-22T10:24:37;4.20;;;2.20;;
47155;SDS011;32908;52.344;16.858;2023-06-22T10:27:10;2.60;;;2.10;;
47155;SDS011;32908;52.344;16.858;2023-06-22T10:29:41;4.10;;;2.00;;
47155;SDS011;32908;52.344;16.858;2023-06-22T10:32:09;2.90;;;2.10;;
47155;SDS011;32908;52.344;16.858;2023-06-22T10:34:37;3.80;;;2.00;;
47155;SDS011;32908;52.344;16.858;2023-06-22T10:37:05;3.30;;;1.90;;
47155;SDS011;32908;52.344;16.858;2023-06-22T10:39:33;2.80;;;2.10;;
47155;SDS011;32908;52.344;16.858;2023-06-22T10:42:01;5.90;;;2.10;;
47155;SDS011;32908;52.344;16.858;2023-06-22T10:44:29;3.00;;;1.90;;
47155;SDS011;32908;52.344;16.858;2023-06-22T10:46:57;2.80;;;2.10;;
47155;SDS011;32908;52.344;16.858;2023-06-22T10:49:25;2.90;;;2.00;;
47155;SDS011;32908;52.344;16.858;2023-06-22T10:51:53;2.90;;;1.60;;
47155;SDS011;32908;52.344;16.858;2023-06-22T10:54:21;2.90;;;1.80;;
47155;SDS011;32908;52.344;16.858;2023-06-22T10:56:49;2.30;;;1.80;;
47155;SDS011;32908;52.344;16.858;2023-06-22T10:59:17;3.90;;;1.90;;
47155;SDS011;32908;52.344;16.858;2023-06-22T11:01:46;5.50;;;2.20;;
47155;SDS011;32908;52.344;16.858;2023-06-22T11:04:14;2.60;;;1.90;;
47155;SDS011;32908;52.344;16.858;2023-06-22T11:06:43;2.00;;;1.80;;
47155;SDS011;32908;52.344;16.858;2023-06-22T11:09:11;2.70;;;2.00;;
47155;SDS011;32908;52.344;16.858;2023-06-22T11:11:39;2.80;;;2.10;;
47155;SDS011;32908;52.344;16.858;2023-06-22T11:14:07;2.40;;;2.00;;
47155;SDS011;32908;52.344;16.858;2023-06-22T11:16:35;2.30;;;1.90;;
47155;SDS011;32908;52.344;16.858;2023-06-22T11:19:04;3.60;;;2.10;;
47155;SDS011;32908;52.344;16.858;2023-06-22T11:21:32;2.00;;;1.70;;
47155;SDS011;32908;52.344;16.858;2023-06-22T11:24:00;3.40;;;1.90;;
47155;SDS011;32908;52.344;16.858;2023-06-22T11:26:29;2.30;;;1.80;;
47155;SDS011;32908;52.344;16.858;2023-06-22T11:28:58;6.70;;;2.30;;
47155;SDS011;32908;52.344;16.858;2023-06-22T11:31:25;2.10;;;1.90;;
47155;SDS011;32908;52.344;16.858;2023-06-22T11:33:53;3.00;;;2.30;;
47155;SDS011;32908;52.344;16.858;2023-06-22T11:36:21;2.40;;;2.10;;
47155;SDS011;32908;52.344;16.858;2023-06-22T11:38:49;3.50;;;1.90;;
47155;SDS011;32908;52.344;16.858;2023-06-22T11:41:17;3.50;;;2.20;;
47155;SDS011;32908;52.344;16.858;2023-06-22T11:43:45;3.40;;;1.90;;
47155;SDS011;32908;52.344;16.858;2023-06-22T11:46:13;4.50;;;2.30;;
47155;SDS011;32908;52.344;16.858;2023-06-22T11:48:41;2.10;;;1.90;;
47155;SDS011;32908;52.344;16.858;2023-06-22T11:51:09;2.50;;;2.30;;
47155;SDS011;32908;52.344;16.858;2023-06-22T11:53:37;2.30;;;2.10;;
47155;SDS011;32908;52.344;16.858;2023-06-22T11:56:05;2.70;;;2.20;;
47155;SDS011;32908;52.344;16.858;2023-06-22T11:58:32;2.30;;;2.10;;
47155;SDS011;32908;52.344;16.858;2023-06-22T12:01:00;2.80;;;2.30;;
47155;SDS011;32908;52.344;16.858;2023-06-22T12:03:28;3.60;;;2.80;;
47155;SDS011;32908;52.344;16.858;2023-06-22T12:05:56;2.90;;;2.10;;
47155;SDS011;32908;52.344;16.858;2023-06-22T12:08:24;3.70;;;2.50;;
47155;SDS011;32908;52.344;16.858;2023-06-22T12:10:52;2.60;;;2.40;;
47155;SDS011;32908;52.344;16.858;2023-06-22T12:13:21;2.50;;;2.30;;
47155;SDS011;32908;52.344;16.858;2023-06-22T12:15:49;6.40;;;2.30;;
47155;SDS011;32908;52.344;16.858;2023-06-22T12:18:18;4.00;;;2.40;;
47155;SDS011;32908;52.344;16.858;2023-06-22T12:20:47;4.10;;;2.30;;
47155;SDS011;32908;52.344;16.858;2023-06-22T12:23:16;2.60;;;2.20;;
47155;SDS011;32908;52.344;16.858;2023-06-22T12:25:44;3.20;;;2.70;;
47155;SDS011;32908;52.344;16.858;2023-06-22T12:28:12;4.30;;;2.50;;
47155;SDS011;32908;52.344;16.858;2023-06-22T12:30:40;3.50;;;2.60;;
47155;SDS011;32908;52.344;16.858;2023-06-22T12:33:08;3.30;;;2.40;;
47155;SDS011;32908;52.344;16.858;2023-06-22T12:35:36;4.40;;;3.00;;
47155;SDS011;32908;52.344;16.858;2023-06-22T12:38:04;4.20;;;2.70;;
47155;SDS011;32908;52.344;16.858;2023-06-22T12:40:34;5.10;;;3.20;;
47155;SDS011;32908;52.344;16.858;2023-06-22T12:43:02;4.10;;;2.60;;
47155;SDS011;32908;52.344;16.858;2023-06-22T12:45:30;3.30;;;2.70;;
47155;SDS011;32908;52.344;16.858;2023-06-22T12:48:02;4.40;;;2.60;;
47155;SDS011;32908;52.344;16.858;2023-06-22T12:50:31;3.30;;;2.70;;
47155;SDS011;32908;52.344;16.858;2023-06-22T12:52:59;3.50;;;2.70;;
47155;SDS011;32908;52.344;16.858;2023-06-22T12:55:29;3.50;;;2.90;;
47155;SDS011;32908;52.344;16.858;2023-06-22T12:57:57;5.90;;;2.90;;
47155;SDS011;32908;52.344;16.858;2023-06-22T13:00:25;3.20;;;2.60;;
47155;SDS011;32908;52.344;16.858;2023-06-22T13:02:53;3.00;;;2.60;;
47155;SDS011;32908;52.344;16.858;2023-06-22T13:05:21;3.90;;;2.50;;
47155;SDS011;32908;52.344;16.858;2023-06-22T13:07:49;5.10;;;2.90;;
47155;SDS011;32908;52.344;16.858;2023-06-22T13:10:17;3.10;;;2.70;;
47155;SDS011;32908;52.344;16.858;2023-06-22T13:12:45;5.80;;;3.20;;
47155;SDS011;32908;52.344;16.858;2023-06-22T13:15:13;3.90;;;2.50;;
47155;SDS011;32908;52.344;16.858;2023-06-22T13:17:41;2.70;;;2.50;;
47155;SDS011;32908;52.344;16.858;2023-06-22T13:20:09;7.30;;;2.60;;
47155;SDS011;32908;52.344;16.858;2023-06-22T13:22:38;2.60;;;2.40;;
47155;SDS011;32908;52.344;16.858;2023-06-22T13:25:07;2.70;;;2.50;;
47155;SDS011;32908;52.344;16.858;2023-06-22T13:27:38;4.80;;;3.10;;
47155;SDS011;32908;52.344;16.858;2023-06-22T13:30:07;3.40;;;2.70;;
47155;SDS011;32908;52.344;16.858;2023-06-22T13:32:35;4.60;;;2.90;;
47155;SDS011;32908;52.344;16.858;2023-06-22T13:35:04;6.60;;;2.70;;
47155;SDS011;32908;52.344;16.858;2023-06-22T13:37:32;3.10;;;2.80;;
47155;SDS011;32908;52.344;16.858;2023-06-22T13:40:00;5.80;;;3.00;;
47155;SDS011;32908;52.344;16.858;2023-06-22T13:42:31;4.00;;;2.60;;
47155;SDS011;32908;52.344;16.858;2023-06-22T13:44:59;3.50;;;2.90;;
47155;SDS011;32908;52.344;16.858;2023-06-22T13:47:26;5.20;;;3.10;;
47155;SDS011;32908;52.344;16.858;2023-06-22T13:49:55;3.80;;;2.60;;
47155;SDS011;32908;52.344;16.858;2023-06-22T13:52:24;3.40;;;2.90;;
47155;SDS011;32908;52.344;16.858;2023-06-22T13:54:52;3.80;;;2.90;;
47155;SDS011;32908;52.344;16.858;2023-06-22T13:57:20;3.90;;;2.70;;
47155;SDS011;32908;52.344;16.858;2023-06-22T13:59:48;2.80;;;2.60;;
47155;SDS011;32908;52.344;16.858;2023-06-22T14:02:16;7.40;;;3.00;;
47155;SDS011;32908;52.344;16.858;2023-06-22T14:04:44;3.60;;;3.20;;
47155;SDS011;32908;52.344;16.858;2023-06-22T14:07:12;3.10;;;2.70;;
47155;SDS011;32908;52.344;16.858;2023-06-22T14:09:40;4.00;;;2.80;;
47155;SDS011;32908;52.344;16.858;2023-06-22T14:12:09;3.20;;;2.90;;
47155;SDS011;32908;52.344;16.858;2023-06-22T14:14:38;3.10;;;2.90;;
47155;SDS011;32908;52.344;16.858;2023-06-22T14:17:06;3.70;;;3.10;;
47155;SDS011;32908;52.344;16.858;2023-06-22T14:19:34;3.60;;;2.80;;
47155;SDS011;32908;52.344;16.858;2023-06-22T14:22:02;3.80;;;2.80;;
47155;SDS011;32908;52.344;16.858;2023-06-22T14:24:30;2.70;;;2.50;;
47155;SDS011;32908;52.344;16.858;2023-06-22T14:26:58;3.20;;;2.90;;
47155;SDS011;32908;52.344;16.858;2023-06-22T14:29:28;3.30;;;2.80;;
47155;SDS011;32908;52.344;16.858;2023-06-22T14:31:56;2.90;;;2.60;;
47155;SDS011;32908;52.344;16.858;2023-06-22T14:34:24;3.20;;;2.70;;
47155;SDS011;32908;52.344;16.858;2023-06-22T14:36:52;2.90;;;2.60;;